sensor_id;sensor_type;location;lat;lon;timestamp;pressure;altitude;pressure_sealevel;temperature
45034;BMP280;30771;47.988;-4.186;2023-04-15T06:00:49;98650.72;;;7.97
45034;BMP280;30771;47.988;-4.186;2023-04-15T06:03:14;98643.81;;;8.02
45034;BMP280;30771;47.988;-4.186;2023-04-15T06:05:40;98644.91;;;8.06
45034;BMP280;30771;47.988;-4.186;2023-04-15T06:08:05;98647.44;;;8.13
45034;BMP280;30771;47.988;-4.186;2023-04-15T06:10:30;98648.13;;;8.20
45034;BMP280;30771;47.988;-4.186;2023-04-15T06:12:55;98649.84;;;8.26
45034;BMP280;30771;47.988;-4.186;2023-04-15T06:15:22;98649.97;;;8.31
45034;BMP280;30771;47.988;-4.186;2023-04-15T06:17:47;98656.88;;;8.37
45034;BMP280;30771;47.988;-4.186;2023-04-15T06:20:12;98659.22;;;8.45
45034;BMP280;30771;47.988;-4.186;2023-04-15T06:22:37;98665.34;;;8.51
45034;BMP280;30771;47.988;-4.186;2023-04-15T06:25:02;98667.63;;;8.59
45034;BMP280;30771;47.988;-4.186;2023-04-15T06:27:28;98661.25;;;8.66
45034;BMP280;30771;47.988;-4.186;2023-04-15T06:29:53;98652.78;;;8.76
45034;BMP280;30771;47.988;-4.186;2023-04-15T06:32:18;98651.16;;;8.86
45034;BMP280;30771;47.988;-4.186;2023-04-15T06:34:43;98647.16;;;8.95
45034;BMP280;30771;47.988;-4.186;2023-04-15T06:37:08;98643.69;;;9.06
45034;BMP280;30771;47.988;-4.186;2023-04-15T06:39:33;98647.53;;;9.15
45034;BMP280;30771;47.988;-4.186;2023-04-15T06:41:59;98646.16;;;9.24
45034;BMP280;30771;47.988;-4.186;2023-04-15T06:44:24;98647.13;;;9.35
45034;BMP280;30771;47.988;-4.186;2023-04-15T06:46:49;98652.81;;;9.44
45034;BMP280;30771;47.988;-4.186;2023-04-15T06:49:14;98661.44;;;9.56
45034;BMP280;30771;47.988;-4.186;2023-04-15T06:51:39;98656.38;;;9.66
45034;BMP280;30771;47.988;-4.186;2023-04-15T06:54:04;98664.16;;;9.77
45034;BMP280;30771;47.988;-4.186;2023-04-15T06:56:30;98663.31;;;9.88
45034;BMP280;30771;47.988;-4.186;2023-04-15T06:58:55;98666.91;;;9.99
45034;BMP280;30771;47.988;-4.186;2023-04-15T07:01:20;98668.91;;;10.08
45034;BMP280;30771;47.988;-4.186;2023-04-15T07:03:45;98675.63;;;10.21
45034;BMP280;30771;47.988;-4.186;2023-04-15T07:06:10;98682.91;;;10.31
45034;BMP280;30771;47.988;-4.186;2023-04-15T07:08:35;98695.19;;;10.42
45034;BMP280;30771;47.988;-4.186;2023-04-15T07:11:01;98706.88;;;10.51
45034;BMP280;30771;47.988;-4.186;2023-04-15T07:13:26;98709.63;;;10.61
45034;BMP280;30771;47.988;-4.186;2023-04-15T07:15:51;98724.22;;;10.68
45034;BMP280;30771;47.988;-4.186;2023-04-15T07:18:16;98738.34;;;10.79
45034;BMP280;30771;47.988;-4.186;2023-04-15T07:20:41;98749.22;;;10.87
45034;BMP280;30771;47.988;-4.186;2023-04-15T07:23:06;98764.63;;;10.95
45034;BMP280;30771;47.988;-4.186;2023-04-15T07:25:32;98774.50;;;11.05
45034;BMP280;30771;47.988;-4.186;2023-04-15T07:27:57;98778.28;;;11.14
45034;BMP280;30771;47.988;-4.186;2023-04-15T07:30:22;98782.97;;;11.29
45034;BMP280;30771;47.988;-4.186;2023-04-15T07:32:47;98795.22;;;11.40
45034;BMP280;30771;47.988;-4.186;2023-04-15T07:35:12;98813.78;;;11.50
45034;BMP280;30771;47.988;-4.186;2023-04-15T07:37:37;98822.09;;;11.63
45034;BMP280;30771;47.988;-4.186;2023-04-15T07:40:03;98832.81;;;11.78
45034;BMP280;30771;47.988;-4.186;2023-04-15T07:42:28;98838.69;;;11.85
45034;BMP280;30771;47.988;-4.186;2023-04-15T07:44:53;98867.28;;;11.93
45034;BMP280;30771;47.988;-4.186;2023-04-15T07:47:18;98885.03;;;12.03
45034;BMP280;30771;47.988;-4.186;2023-04-15T07:49:44;98913.84;;;12.09
45034;BMP280;30771;47.988;-4.186;2023-04-15T07:52:09;98936.06;;;12.13
45034;BMP280;30771;47.988;-4.186;2023-04-15T07:54:34;98955.09;;;12.15
45034;BMP280;30771;47.988;-4.186;2023-04-15T07:56:59;98961.75;;;12.23
45034;BMP280;30771;47.988;-4.186;2023-04-15T07:59:24;98967.16;;;12.33
45034;BMP280;30771;47.988;-4.186;2023-04-15T08:01:49;98968.91;;;12.49
45034;BMP280;30771;47.988;-4.186;2023-04-15T08:04:15;98970.13;;;12.63
45034;BMP280;30771;47.988;-4.186;2023-04-15T08:06:40;98995.00;;;12.72
45034;BMP280;30771;47.988;-4.186;2023-04-15T08:09:05;99022.03;;;12.84
45034;BMP280;30771;47.988;-4.186;2023-04-15T08:11:30;99050.16;;;12.95
45034;BMP280;30771;47.988;-4.186;2023-04-15T08:13:56;99078.22;;;13.01
45034;BMP280;30771;47.988;-4.186;2023-04-15T08:16:21;99097.09;;;13.15
45034;BMP280;30771;47.988;-4.186;2023-04-15T08:18:47;99164.78;;;13.16
45034;BMP280;30771;47.988;-4.186;2023-04-15T08:21:12;99211.84;;;13.19
45034;BMP280;30771;47.988;-4.186;2023-04-15T08:23:38;99298.75;;;13.15
45034;BMP280;30771;47.988;-4.186;2023-04-15T08:26:03;99366.28;;;13.06
45034;BMP280;30771;47.988;-4.186;2023-04-15T08:28:28;99367.47;;;13.15
45034;BMP280;30771;47.988;-4.186;2023-04-15T08:30:53;99385.47;;;13.18
45034;BMP280;30771;47.988;-4.186;2023-04-15T08:33:18;99430.97;;;13.20
45034;BMP280;30771;47.988;-4.186;2023-04-15T08:35:44;99500.75;;;13.19
45034;BMP280;30771;47.988;-4.186;2023-04-15T08:38:09;99496.03;;;13.21
45034;BMP280;30771;47.988;-4.186;2023-04-15T08:40:40;99483.91;;;13.25
45034;BMP280;30771;47.988;-4.186;2023-04-15T08:43:07;99495.94;;;13.33
45034;BMP280;30771;47.988;-4.186;2023-04-15T08:45:33;99486.50;;;13.42
45034;BMP280;30771;47.988;-4.186;2023-04-15T08:47:59;99513.56;;;13.44
45034;BMP280;30771;47.988;-4.186;2023-04-15T08:50:25;99545.13;;;13.51
45034;BMP280;30771;47.988;-4.186;2023-04-15T08:52:53;99653.53;;;13.51
45034;BMP280;30771;47.988;-4.186;2023-04-15T08:55:18;99707.00;;;13.53
45034;BMP280;30771;47.988;-4.186;2023-04-15T08:57:44;99717.91;;;13.56
45034;BMP280;30771;47.988;-4.186;2023-04-15T09:00:10;99719.50;;;13.57
45034;BMP280;30771;47.988;-4.186;2023-04-15T09:02:35;99755.94;;;13.67
45034;BMP280;30771;47.988;-4.186;2023-04-15T09:05:00;99776.16;;;13.73
45034;BMP280;30771;47.988;-4.186;2023-04-15T09:07:25;99753.06;;;13.85
45034;BMP280;30771;47.988;-4.186;2023-04-15T09:09:51;99798.31;;;14.00
45034;BMP280;30771;47.988;-4.186;2023-04-15T09:12:16;99850.16;;;14.12
45034;BMP280;30771;47.988;-4.186;2023-04-15T09:14:42;99885.22;;;14.19
45034;BMP280;30771;47.988;-4.186;2023-04-15T09:17:08;99937.59;;;14.17
45034;BMP280;30771;47.988;-4.186;2023-04-15T09:19:34;99944.13;;;14.26
45034;BMP280;30771;47.988;-4.186;2023-04-15T09:21:59;99982.19;;;14.37
45034;BMP280;30771;47.988;-4.186;2023-04-15T09:24:24;100014.59;;;14.27
45034;BMP280;30771;47.988;-4.186;2023-04-15T09:26:53;100012.94;;;14.38
45034;BMP280;30771;47.988;-4.186;2023-04-15T09:29:18;100119.69;;;14.38
45034;BMP280;30771;47.988;-4.186;2023-04-15T09:31:43;100128.75;;;14.43
45034;BMP280;30771;47.988;-4.186;2023-04-15T09:34:09;100126.88;;;14.66
45034;BMP280;30771;47.988;-4.186;2023-04-15T09:39:11;100156.41;;;14.75
45034;BMP280;30771;47.988;-4.186;2023-04-15T09:41:36;100236.41;;;14.72
45034;BMP280;30771;47.988;-4.186;2023-04-15T09:44:02;100219.94;;;14.81
45034;BMP280;30771;47.988;-4.186;2023-04-15T09:46:40;100258.06;;;14.80
45034;BMP280;30771;47.988;-4.186;2023-04-15T09:49:06;100253.56;;;14.81
45034;BMP280;30771;47.988;-4.186;2023-04-15T09:51:33;100220.69;;;14.93
45034;BMP280;30771;47.988;-4.186;2023-04-15T09:53:58;100196.53;;;15.06
45034;BMP280;30771;47.988;-4.186;2023-04-15T09:56:23;100258.28;;;15.18
45034;BMP280;30771;47.988;-4.186;2023-04-15T09:58:56;100277.78;;;15.24
45034;BMP280;30771;47.988;-4.186;2023-04-15T10:01:21;100287.91;;;15.27
45034;BMP280;30771;47.988;-4.186;2023-04-15T10:03:46;100283.34;;;15.39
45034;BMP280;30771;47.988;-4.186;2023-04-15T10:06:11;100302.75;;;15.39
45034;BMP280;30771;47.988;-4.186;2023-04-15T10:08:38;100261.31;;;15.38
45034;BMP280;30771;47.988;-4.186;2023-04-15T10:11:04;100283.03;;;15.35
45034;BMP280;30771;47.988;-4.186;2023-04-15T10:13:30;100302.22;;;15.14
45034;BMP280;30771;47.988;-4.186;2023-04-15T10:16:06;100289.19;;;15.24
45034;BMP280;30771;47.988;-4.186;2023-04-15T10:18:37;100345.25;;;15.16
45034;BMP280;30771;47.988;-4.186;2023-04-15T10:21:08;100405.47;;;15.04
45034;BMP280;30771;47.988;-4.186;2023-04-15T10:23:33;100389.91;;;14.96
45034;BMP280;30771;47.988;-4.186;2023-04-15T10:25:58;100379.41;;;15.01
45034;BMP280;30771;47.988;-4.186;2023-04-15T10:28:24;100405.34;;;15.22
45034;BMP280;30771;47.988;-4.186;2023-04-15T10:30:49;100460.81;;;15.24
45034;BMP280;30771;47.988;-4.186;2023-04-15T10:33:24;100481.78;;;15.25
45034;BMP280;30771;47.988;-4.186;2023-04-15T10:35:50;100457.34;;;15.35
45034;BMP280;30771;47.988;-4.186;2023-04-15T10:38:34;100441.53;;;15.28
45034;BMP280;30771;47.988;-4.186;2023-04-15T10:43:37;100469.75;;;15.57
45034;BMP280;30771;47.988;-4.186;2023-04-15T10:46:04;100535.06;;;15.58
45034;BMP280;30771;47.988;-4.186;2023-04-15T10:48:29;100563.72;;;15.56
45034;BMP280;30771;47.988;-4.186;2023-04-15T10:50:55;100579.84;;;15.43
45034;BMP280;30771;47.988;-4.186;2023-04-15T10:53:27;100553.31;;;15.43
45034;BMP280;30771;47.988;-4.186;2023-04-15T10:55:52;100515.00;;;15.63
45034;BMP280;30771;47.988;-4.186;2023-04-15T10:58:17;100536.81;;;15.65
45034;BMP280;30771;47.988;-4.186;2023-04-15T11:00:43;100559.19;;;15.69
45034;BMP280;30771;47.988;-4.186;2023-04-15T11:03:13;100544.25;;;15.91
45034;BMP280;30771;47.988;-4.186;2023-04-15T11:08:07;100642.50;;;16.02
45034;BMP280;30771;47.988;-4.186;2023-04-15T11:13:04;100635.09;;;16.16
45034;BMP280;30771;47.988;-4.186;2023-04-15T11:15:33;100687.00;;;15.84
45034;BMP280;30771;47.988;-4.186;2023-04-15T11:18:07;100726.75;;;15.49
45034;BMP280;30771;47.988;-4.186;2023-04-15T11:20:33;100698.81;;;15.70
45034;BMP280;30771;47.988;-4.186;2023-04-15T11:22:58;100738.47;;;15.83
45034;BMP280;30771;47.988;-4.186;2023-04-15T11:25:24;100722.75;;;15.81
45034;BMP280;30771;47.988;-4.186;2023-04-15T11:27:49;100729.47;;;15.95
45034;BMP280;30771;47.988;-4.186;2023-04-15T11:30:18;100748.63;;;15.97
45034;BMP280;30771;47.988;-4.186;2023-04-15T11:32:43;100738.81;;;16.09
45034;BMP280;30771;47.988;-4.186;2023-04-15T11:35:09;100749.34;;;16.16
45034;BMP280;30771;47.988;-4.186;2023-04-15T11:37:34;100794.72;;;15.91
45034;BMP280;30771;47.988;-4.186;2023-04-15T11:40:01;100794.34;;;15.88
45034;BMP280;30771;47.988;-4.186;2023-04-15T11:42:26;100780.84;;;15.89
45034;BMP280;30771;47.988;-4.186;2023-04-15T11:44:58;100754.44;;;16.06
45034;BMP280;30771;47.988;-4.186;2023-04-15T11:47:30;100800.16;;;16.08
45034;BMP280;30771;47.988;-4.186;2023-04-15T11:49:55;100834.78;;;15.90
45034;BMP280;30771;47.988;-4.186;2023-04-15T11:52:20;100830.03;;;15.92
45034;BMP280;30771;47.988;-4.186;2023-04-15T11:54:45;100836.22;;;16.04
45034;BMP280;30771;47.988;-4.186;2023-04-15T11:57:10;100846.34;;;16.07
45034;BMP280;30771;47.988;-4.186;2023-04-15T11:59:42;100832.16;;;16.24
45034;BMP280;30771;47.988;-4.186;2023-04-15T12:02:10;100836.78;;;16.29
45034;BMP280;30771;47.988;-4.186;2023-04-15T12:04:35;100831.28;;;16.30
45034;BMP280;30771;47.988;-4.186;2023-04-15T12:07:03;100848.47;;;16.28
45034;BMP280;30771;47.988;-4.186;2023-04-15T12:09:28;100893.84;;;16.15
45034;BMP280;30771;47.988;-4.186;2023-04-15T12:11:56;100900.31;;;16.19
45034;BMP280;30771;47.988;-4.186;2023-04-15T12:14:27;100957.47;;;15.98
45034;BMP280;30771;47.988;-4.186;2023-04-15T12:16:57;100935.72;;;15.90
45034;BMP280;30771;47.988;-4.186;2023-04-15T12:19:23;100899.41;;;16.13
45034;BMP280;30771;47.988;-4.186;2023-04-15T12:21:48;100888.34;;;16.28
45034;BMP280;30771;47.988;-4.186;2023-04-15T12:24:14;100883.97;;;16.45
45034;BMP280;30771;47.988;-4.186;2023-04-15T12:26:46;100900.13;;;16.43
45034;BMP280;30771;47.988;-4.186;2023-04-15T12:29:12;100920.34;;;16.33
45034;BMP280;30771;47.988;-4.186;2023-04-15T12:31:47;100943.78;;;16.24
45034;BMP280;30771;47.988;-4.186;2023-04-15T12:34:13;100961.09;;;16.15
45034;BMP280;30771;47.988;-4.186;2023-04-15T12:36:38;100951.63;;;16.19
45034;BMP280;30771;47.988;-4.186;2023-04-15T12:39:03;100971.31;;;16.30
45034;BMP280;30771;47.988;-4.186;2023-04-15T12:41:28;100975.94;;;16.34
45034;BMP280;30771;47.988;-4.186;2023-04-15T12:43:54;100995.13;;;16.36
45034;BMP280;30771;47.988;-4.186;2023-04-15T12:46:19;100982.78;;;16.53
45034;BMP280;30771;47.988;-4.186;2023-04-15T12:48:44;100992.09;;;16.62
45034;BMP280;30771;47.988;-4.186;2023-04-15T12:51:09;101003.97;;;16.60
45034;BMP280;30771;47.988;-4.186;2023-04-15T12:53:34;101009.69;;;16.45
45034;BMP280;30771;47.988;-4.186;2023-04-15T12:55:59;100992.84;;;16.51
45034;BMP280;30771;47.988;-4.186;2023-04-15T12:58:25;100981.34;;;16.57
45034;BMP280;30771;47.988;-4.186;2023-04-15T13:00:50;101004.44;;;16.57
45034;BMP280;30771;47.988;-4.186;2023-04-15T13:03:15;101023.47;;;16.42
45034;BMP280;30771;47.988;-4.186;2023-04-15T13:05:40;101029.63;;;16.43
45034;BMP280;30771;47.988;-4.186;2023-04-15T13:08:05;101030.97;;;16.45
45034;BMP280;30771;47.988;-4.186;2023-04-15T13:10:31;101036.84;;;16.36
45034;BMP280;30771;47.988;-4.186;2023-04-15T13:12:56;101033.91;;;16.26
45034;BMP280;30771;47.988;-4.186;2023-04-15T13:15:21;101021.22;;;16.28
45034;BMP280;30771;47.988;-4.186;2023-04-15T13:17:47;101017.78;;;16.39
45034;BMP280;30771;47.988;-4.186;2023-04-15T13:20:12;101001.78;;;16.57
45034;BMP280;30771;47.988;-4.186;2023-04-15T13:22:37;101001.19;;;16.55
45034;BMP280;30771;47.988;-4.186;2023-04-15T13:25:03;101001.19;;;16.55
45034;BMP280;30771;47.988;-4.186;2023-04-15T13:27:28;100997.94;;;16.53
45034;BMP280;30771;47.988;-4.186;2023-04-15T13:29:53;100996.31;;;16.40
45034;BMP280;30771;47.988;-4.186;2023-04-15T13:32:18;101028.09;;;16.35
45034;BMP280;30771;47.988;-4.186;2023-04-15T13:34:43;101019.53;;;16.45
45034;BMP280;30771;47.988;-4.186;2023-04-15T13:37:09;101023.19;;;16.62
45034;BMP280;30771;47.988;-4.186;2023-04-15T13:39:34;101021.56;;;16.72
45034;BMP280;30771;47.988;-4.186;2023-04-15T13:41:59;101076.66;;;16.54
45034;BMP280;30771;47.988;-4.186;2023-04-15T13:44:24;101076.13;;;16.34
45034;BMP280;30771;47.988;-4.186;2023-04-15T13:46:49;101077.50;;;16.25
45034;BMP280;30771;47.988;-4.186;2023-04-15T13:49:14;101059.19;;;16.17
45034;BMP280;30771;47.988;-4.186;2023-04-15T13:51:40;101059.34;;;16.22
45034;BMP280;30771;47.988;-4.186;2023-04-15T13:54:05;101035.22;;;16.35
45034;BMP280;30771;47.988;-4.186;2023-04-15T13:56:30;101051.09;;;16.41
45034;BMP280;30771;47.988;-4.186;2023-04-15T13:58:55;101030.19;;;16.45
45034;BMP280;30771;47.988;-4.186;2023-04-15T14:01:20;101018.56;;;16.57
45034;BMP280;30771;47.988;-4.186;2023-04-15T14:03:45;101013.91;;;16.64
45034;BMP280;30771;47.988;-4.186;2023-04-15T14:06:10;101039.81;;;16.57
45034;BMP280;30771;47.988;-4.186;2023-04-15T14:08:36;101064.38;;;16.41
45034;BMP280;30771;47.988;-4.186;2023-04-15T14:11:01;101048.56;;;16.46
45034;BMP280;30771;47.988;-4.186;2023-04-15T14:13:26;101052.94;;;16.41
45034;BMP280;30771;47.988;-4.186;2023-04-15T14:15:51;101036.22;;;16.52
45034;BMP280;30771;47.988;-4.186;2023-04-15T14:18:16;101051.34;;;16.51
45034;BMP280;30771;47.988;-4.186;2023-04-15T14:20:41;101046.84;;;16.52
45034;BMP280;30771;47.988;-4.186;2023-04-15T14:23:07;101055.25;;;16.49
45034;BMP280;30771;47.988;-4.186;2023-04-15T14:25:32;101032.88;;;16.56
45034;BMP280;30771;47.988;-4.186;2023-04-15T14:27:57;101007.78;;;16.64
45034;BMP280;30771;47.988;-4.186;2023-04-15T14:30:23;101034.69;;;16.44
45034;BMP280;30771;47.988;-4.186;2023-04-15T14:32:48;101031.72;;;16.52
45034;BMP280;30771;47.988;-4.186;2023-04-15T14:35:13;101020.38;;;16.68
45034;BMP280;30771;47.988;-4.186;2023-04-15T14:37:38;100996.38;;;16.86
45034;BMP280;30771;47.988;-4.186;2023-04-15T14:40:03;100995.81;;;17.08
45034;BMP280;30771;47.988;-4.186;2023-04-15T14:42:29;101019.28;;;17.11
45034;BMP280;30771;47.988;-4.186;2023-04-15T14:44:54;101016.50;;;17.06
45034;BMP280;30771;47.988;-4.186;2023-04-15T14:47:19;101020.88;;;17.12
45034;BMP280;30771;47.988;-4.186;2023-04-15T14:49:44;101023.44;;;17.07
45034;BMP280;30771;47.988;-4.186;2023-04-15T14:52:09;101018.56;;;16.92
45034;BMP280;30771;47.988;-4.186;2023-04-15T14:54:34;101017.03;;;16.84
45034;BMP280;30771;47.988;-4.186;2023-04-15T14:57:00;101015.91;;;16.80
45034;BMP280;30771;47.988;-4.186;2023-04-15T14:59:25;101012.44;;;16.80
45034;BMP280;30771;47.988;-4.186;2023-04-15T15:01:50;100997.50;;;16.79
45034;BMP280;30771;47.988;-4.186;2023-04-15T15:04:16;100986.75;;;16.74
45034;BMP280;30771;47.988;-4.186;2023-04-15T15:06:41;100986.88;;;16.67
45034;BMP280;30771;47.988;-4.186;2023-04-15T15:09:06;101000.41;;;16.66
45034;BMP280;30771;47.988;-4.186;2023-04-15T15:11:32;101015.97;;;16.51
45034;BMP280;30771;47.988;-4.186;2023-04-15T15:13:57;101036.66;;;16.49
45034;BMP280;30771;47.988;-4.186;2023-04-15T15:16:22;101015.97;;;16.51
45034;BMP280;30771;47.988;-4.186;2023-04-15T15:18:48;101012.19;;;16.70
45034;BMP280;30771;47.988;-4.186;2023-04-15T15:21:13;101018.78;;;16.79
45034;BMP280;30771;47.988;-4.186;2023-04-15T15:23:38;101032.31;;;16.66
45034;BMP280;30771;47.988;-4.186;2023-04-15T15:26:04;101024.22;;;16.72
45034;BMP280;30771;47.988;-4.186;2023-04-15T15:28:29;101017.53;;;16.81
45034;BMP280;30771;47.988;-4.186;2023-04-15T15:30:54;101041.41;;;16.58
45034;BMP280;30771;47.988;-4.186;2023-04-15T15:33:19;101031.84;;;16.57
45034;BMP280;30771;47.988;-4.186;2023-04-15T15:35:44;101023.44;;;16.72
45034;BMP280;30771;47.988;-4.186;2023-04-15T15:38:10;101036.03;;;16.76
45034;BMP280;30771;47.988;-4.186;2023-04-15T15:40:35;101067.25;;;16.69
45034;BMP280;30771;47.988;-4.186;2023-04-15T15:43:00;101053.78;;;16.53
45034;BMP280;30771;47.988;-4.186;2023-04-15T15:45:26;101019.69;;;16.61
45034;BMP280;30771;47.988;-4.186;2023-04-15T15:47:51;100989.59;;;16.49
45034;BMP280;30771;47.988;-4.186;2023-04-15T15:50:16;100970.38;;;16.36
45034;BMP280;30771;47.988;-4.186;2023-04-15T15:52:41;100947.50;;;16.35
45034;BMP280;30771;47.988;-4.186;2023-04-15T15:55:07;100936.09;;;16.46
45034;BMP280;30771;47.988;-4.186;2023-04-15T15:57:32;100946.63;;;16.52
45034;BMP280;30771;47.988;-4.186;2023-04-15T15:59:57;100935.06;;;16.47
45034;BMP280;30771;47.988;-4.186;2023-04-15T16:02:22;100920.22;;;16.28
45034;BMP280;30771;47.988;-4.186;2023-04-15T16:04:47;100912.47;;;16.15
45034;BMP280;30771;47.988;-4.186;2023-04-15T16:07:13;100902.25;;;16.12
45034;BMP280;30771;47.988;-4.186;2023-04-15T16:09:38;100879.88;;;16.08
45034;BMP280;30771;47.988;-4.186;2023-04-15T16:12:03;100887.28;;;16.29
45034;BMP280;30771;47.988;-4.186;2023-04-15T16:14:28;100901.44;;;16.52
45034;BMP280;30771;47.988;-4.186;2023-04-15T16:16:53;100908.25;;;16.71
45034;BMP280;30771;47.988;-4.186;2023-04-15T16:19:19;100923.16;;;16.61
45034;BMP280;30771;47.988;-4.186;2023-04-15T16:21:44;100907.91;;;16.56
45034;BMP280;30771;47.988;-4.186;2023-04-15T16:24:09;100889.28;;;16.56
45034;BMP280;30771;47.988;-4.186;2023-04-15T16:26:35;100953.91;;;16.68
45034;BMP280;30771;47.988;-4.186;2023-04-15T16:29:00;100972.53;;;16.57
45034;BMP280;30771;47.988;-4.186;2023-04-15T16:31:25;100966.41;;;16.56
45034;BMP280;30771;47.988;-4.186;2023-04-15T16:33:50;100968.69;;;16.53
45034;BMP280;30771;47.988;-4.186;2023-04-15T16:36:15;100964.75;;;16.55
45034;BMP280;30771;47.988;-4.186;2023-04-15T16:38:40;100956.88;;;16.49
45034;BMP280;30771;47.988;-4.186;2023-04-15T16:41:06;100973.53;;;16.44
45034;BMP280;30771;47.988;-4.186;2023-04-15T16:43:31;100991.47;;;16.37
45034;BMP280;30771;47.988;-4.186;2023-04-15T16:45:56;100976.88;;;16.40
45034;BMP280;30771;47.988;-4.186;2023-04-15T16:48:21;100971.81;;;16.50
45034;BMP280;30771;47.988;-4.186;2023-04-15T16:50:46;100967.09;;;16.75
45034;BMP280;30771;47.988;-4.186;2023-04-15T16:53:13;100970.91;;;16.79
45034;BMP280;30771;47.988;-4.186;2023-04-15T16:55:39;100958.66;;;16.66
45034;BMP280;30771;47.988;-4.186;2023-04-15T16:58:04;100954.75;;;16.57
45034;BMP280;30771;47.988;-4.186;2023-04-15T17:00:29;100967.34;;;16.62
45034;BMP280;30771;47.988;-4.186;2023-04-15T17:02:55;100968.56;;;16.48
45034;BMP280;30771;47.988;-4.186;2023-04-15T17:05:20;100978.88;;;16.15
45034;BMP280;30771;47.988;-4.186;2023-04-15T17:07:45;100946.19;;;15.85
45034;BMP280;30771;47.988;-4.186;2023-04-15T17:10:10;100913.09;;;15.69
45034;BMP280;30771;47.988;-4.186;2023-04-15T17:12:36;100869.66;;;15.52
45034;BMP280;30771;47.988;-4.186;2023-04-15T17:15:01;100812.25;;;15.39
45034;BMP280;30771;47.988;-4.186;2023-04-15T17:17:26;100758.44;;;15.32
45034;BMP280;30771;47.988;-4.186;2023-04-15T17:19:51;100722.44;;;15.25
45034;BMP280;30771;47.988;-4.186;2023-04-15T17:22:16;100696.34;;;15.22
45034;BMP280;30771;47.988;-4.186;2023-04-15T17:24:41;100680.88;;;15.19
45034;BMP280;30771;47.988;-4.186;2023-04-15T17:27:07;100665.78;;;15.19
45034;BMP280;30771;47.988;-4.186;2023-04-15T17:29:32;100630.78;;;15.11
45034;BMP280;30771;47.988;-4.186;2023-04-15T17:31:57;100586.50;;;15.00
45034;BMP280;30771;47.988;-4.186;2023-04-15T17:34:22;100550.59;;;14.86
45034;BMP280;30771;47.988;-4.186;2023-04-15T17:36:47;100520.13;;;14.77
45034;BMP280;30771;47.988;-4.186;2023-04-15T17:39:12;100499.44;;;14.74
45034;BMP280;30771;47.988;-4.186;2023-04-15T17:41:38;100470.56;;;14.66
45034;BMP280;30771;47.988;-4.186;2023-04-15T17:44:03;100438.31;;;14.57
45034;BMP280;30771;47.988;-4.186;2023-04-15T17:46:28;100421.81;;;14.55
45034;BMP280;30771;47.988;-4.186;2023-04-15T17:48:54;100400.97;;;14.59
45034;BMP280;30771;47.988;-4.186;2023-04-15T17:51:19;100398.56;;;14.57
45034;BMP280;30771;47.988;-4.186;2023-04-15T17:53:44;100384.72;;;14.55
45034;BMP280;30771;47.988;-4.186;2023-04-15T17:56:09;100391.28;;;14.53
45034;BMP280;30771;47.988;-4.186;2023-04-15T17:58:34;100387.72;;;14.59
45034;BMP280;30771;47.988;-4.186;2023-04-15T18:00:59;100380.00;;;14.57
45034;BMP280;30771;47.988;-4.186;2023-04-15T18:03:25;100376.69;;;14.62
45034;BMP280;30771;47.988;-4.186;2023-04-15T18:05:50;100354.66;;;14.61
45034;BMP280;30771;47.988;-4.186;2023-04-15T18:08:15;100364.09;;;14.69
45034;BMP280;30771;47.988;-4.186;2023-04-15T18:10:40;100396.03;;;14.62
45034;BMP280;30771;47.988;-4.186;2023-04-15T18:13:05;100397.38;;;14.42
45034;BMP280;30771;47.988;-4.186;2023-04-15T18:15:31;100380.28;;;14.26
45034;BMP280;30771;47.988;-4.186;2023-04-15T18:17:57;100353.41;;;14.11
45034;BMP280;30771;47.988;-4.186;2023-04-15T18:20:22;100319.69;;;14.06
45034;BMP280;30771;47.988;-4.186;2023-04-15T18:22:47;100287.91;;;14.06
45034;BMP280;30771;47.988;-4.186;2023-04-15T18:25:12;100266.03;;;13.99
45034;BMP280;30771;47.988;-4.186;2023-04-15T18:27:37;100237.94;;;13.87
45034;BMP280;30771;47.988;-4.186;2023-04-15T18:30:03;100218.81;;;13.73
45034;BMP280;30771;47.988;-4.186;2023-04-15T18:32:29;100183.34;;;13.63
45034;BMP280;30771;47.988;-4.186;2023-04-15T18:34:54;100135.94;;;13.50
45034;BMP280;30771;47.988;-4.186;2023-04-15T18:37:19;100112.94;;;13.39
45034;BMP280;30771;47.988;-4.186;2023-04-15T18:39:44;100087.81;;;13.29
45034;BMP280;30771;47.988;-4.186;2023-04-15T18:42:09;100061.75;;;13.21
45034;BMP280;30771;47.988;-4.186;2023-04-15T18:44:34;100043.56;;;13.13
45034;BMP280;30771;47.988;-4.186;2023-04-15T18:47:00;100024.25;;;13.01
45034;BMP280;30771;47.988;-4.186;2023-04-15T18:49:25;100005.16;;;12.88
45034;BMP280;30771;47.988;-4.186;2023-04-15T18:51:50;99971.44;;;12.72
45034;BMP280;30771;47.988;-4.186;2023-04-15T18:54:15;99946.47;;;12.56
45034;BMP280;30771;47.988;-4.186;2023-04-15T18:56:40;99912.91;;;12.45
45034;BMP280;30771;47.988;-4.186;2023-04-15T18:59:05;99891.28;;;12.37
45034;BMP280;30771;47.988;-4.186;2023-04-15T19:01:31;99878.47;;;12.29
45034;BMP280;30771;47.988;-4.186;2023-04-15T19:03:56;99864.16;;;12.18
45034;BMP280;30771;47.988;-4.186;2023-04-15T19:06:21;99841.22;;;12.07
45034;BMP280;30771;47.988;-4.186;2023-04-15T19:08:47;99825.09;;;11.97
45034;BMP280;30771;47.988;-4.186;2023-04-15T19:11:12;99809.34;;;11.90
45034;BMP280;30771;47.988;-4.186;2023-04-15T19:13:37;99794.63;;;11.83
45034;BMP280;30771;47.988;-4.186;2023-04-15T19:16:03;99784.19;;;11.76
45034;BMP280;30771;47.988;-4.186;2023-04-15T19:18:28;99774.75;;;11.69
45034;BMP280;30771;47.988;-4.186;2023-04-15T19:20:54;99773.03;;;11.63
45034;BMP280;30771;47.988;-4.186;2023-04-15T19:23:20;99751.00;;;11.57
45034;BMP280;30771;47.988;-4.186;2023-04-15T19:25:45;99749.22;;;11.51
45034;BMP280;30771;47.988;-4.186;2023-04-15T19:28:11;99732.28;;;11.47
45034;BMP280;30771;47.988;-4.186;2023-04-15T19:30:36;99728.69;;;11.42
45034;BMP280;30771;47.988;-4.186;2023-04-15T19:33:01;99721.44;;;11.37
45034;BMP280;30771;47.988;-4.186;2023-04-15T19:35:26;99709.16;;;11.31
45034;BMP280;30771;47.988;-4.186;2023-04-15T19:37:53;99708.81;;;11.28
45034;BMP280;30771;47.988;-4.186;2023-04-15T19:40:18;99698.13;;;11.23
45034;BMP280;30771;47.988;-4.186;2023-04-15T19:42:43;99686.63;;;11.17
45034;BMP280;30771;47.988;-4.186;2023-04-15T19:45:08;99680.22;;;11.13
45034;BMP280;30771;47.988;-4.186;2023-04-15T19:47:34;99672.75;;;11.10
45034;BMP280;30771;47.988;-4.186;2023-04-15T19:49:59;99661.06;;;11.06